Terminal Aerodrome Forecast
Issued by NWS Shreveport, LA

Home | Current Version | Previous Version | Text Only | Print | Product List | Glossary On
Versions: 1 2 3 4 5 6 7 8 9 10 11 12 13 14 15
505
FTUS44 KSHV 191734
TAFELD
TAF
KELD 191734Z 1918/2018 20008KT P6SM BKN018 BKN040
     FM192000 19007KT P6SM SCT045 SCT300
     FM200100 16003KT P6SM FEW250
     FM201200 15004KT 4SM BR OVC015
     FM201700 19009KT P6SM BKN040=

USA.gov is the U.S. government's official web portal to all federal, state and local government web resources and services.